Time;durP1;ratioP1;P1;durP2;ratioP2;P2;SDS_P1;SDS_P2;PMS_P1;PMS_P2;Temp;Humidity;BMP_temperature;BMP_pressure;BME280_temperature;BME280_humidity;BME280_pressure;Samples;Min_cycle;Max_cycle;Signal;HPM_P1;HPM_P2
2023/01/15 07:36:54;;;;;;;0.30;0.30;;;6.40;99.90;8.50;99786.00;;;;5070743;28;20207;-68
2023/01/15 07:39:21;;;;;;;0.30;0.30;;;6.40;99.90;8.00;99780.00;;;;5074430;28;20186;-68
2023/01/15 07:50:21;;;;;;;0.30;0.30;;;6.40;99.90;8.50;99764.00;;;;5070774;28;20723;-68
2023/01/15 07:52:52;;;;;;;0.40;0.40;;;6.40;99.90;8.90;99788.00;;;;5064724;28;20218;-68
2023/01/15 07:55:21;;;;;;;9.00;1.10;;;6.60;99.90;8.00;99821.00;;;;5075332;28;20197;-68
2023/01/15 07:57:47;;;;;;;0.40;0.40;;;6.50;99.90;8.20;99804.00;;;;5074416;28;20221;-68
2023/01/15 08:00:21;;;;;;;0.30;0.30;;;6.30;99.90;8.60;99825.00;;;;5051420;28;20193;-68
2023/01/15 08:02:56;;;;;;;0.40;0.40;;;6.40;99.90;8.50;99808.00;;;;5050505;28;20189;-68
2023/01/15 08:05:24;;;;;;;0.50;0.50;;;6.50;99.90;8.80;99823.00;;;;5074563;28;20200;-68
2023/01/15 08:07:55;;;;;;;0.30;0.30;;;6.60;99.90;8.60;99805.00;;;;5075593;28;20186;-68
2023/01/15 08:10:24;;;;;;;0.30;0.30;;;6.60;99.90;9.50;99817.00;;;;5070712;28;20190;-68
2023/01/15 08:15:45;;;;;;;0.50;0.50;;;6.60;99.90;7.70;99820.00;;;;5048118;28;20558;-68
2023/01/15 08:18:11;;;;;;;0.20;0.20;;;6.30;99.90;8.40;99803.00;;;;5073720;28;20195;-68
2023/01/15 08:20:39;;;;;;;4.63;0.97;;;6.50;99.90;8.50;99817.00;;;;5073508;28;20645;-68
2023/01/15 08:23:13;;;;;;;0.57;0.57;;;6.60;99.90;9.40;99760.00;;;;5073986;28;20644;-68
2023/01/15 08:25:44;;;;;;;0.30;0.30;;;6.80;99.90;9.30;99827.00;;;;5066580;28;20207;-68
2023/01/15 08:28:14;;;;;;;0.50;0.50;;;6.90;99.90;9.20;99826.00;;;;5063207;28;20185;-68
2023/01/15 08:30:45;;;;;;;0.27;0.27;;;6.90;99.90;8.70;99785.00;;;;5052698;28;20196;-68
2023/01/15 08:33:28;;;;;;;0.20;0.20;;;6.90;99.90;9.70;99826.00;;;;5071023;28;20212;-68
2023/01/15 08:35:53;;;;;;;0.20;0.20;;;7.00;99.90;9.60;99841.00;;;;5054654;28;20210;-68
2023/01/15 08:38:24;;;;;;;0.60;0.60;;;7.10;99.90;9.60;99823.00;;;;5072767;28;20204;-68
2023/01/15 08:40:57;;;;;;;0.30;0.30;;;7.10;99.90;9.70;99821.00;;;;5071642;28;20190;-68
2023/01/15 08:43:27;;;;;;;0.20;0.20;;;7.20;99.90;9.00;99802.00;;;;5071770;28;20644;-68
2023/01/15 08:46:02;;;;;;;0.33;0.33;;;7.10;99.90;9.40;99842.00;;;;5043505;28;20207;-68
2023/01/15 08:48:35;;;;;;;1.03;1.03;;;7.20;99.90;9.40;99844.00;;;;5047923;28;20206;-68
2023/01/15 08:51:07;;;;;;;0.30;0.30;;;7.20;99.90;9.10;99845.00;;;;5056444;28;20194;-68
2023/01/15 08:53:33;;;;;;;0.77;0.30;;;7.20;99.90;8.70;99836.00;;;;5046716;28;20233;-68
2023/01/15 08:56:02;;;;;;;0.77;0.40;;;7.10;99.90;8.80;99835.00;;;;5074118;28;20558;-68
2023/01/15 08:58:35;;;;;;;0.20;0.20;;;7.00;99.90;9.40;99842.00;;;;5064694;28;20652;-68
2023/01/15 09:01:10;;;;;;;0.30;0.30;;;7.10;99.90;9.30;99835.00;;;;5050570;28;20193;-68
2023/01/15 09:03:37;;;;;;;0.10;0.10;;;7.30;99.90;9.40;99841.00;;;;5059843;28;20204;-67
2023/01/15 09:06:04;;;;;;;0.40;0.40;;;7.50;99.90;8.60;99835.00;;;;5073023;28;20218;-68
2023/01/15 09:08:40;;;;;;;0.27;0.27;;;7.30;99.90;9.60;99849.00;;;;5054832;28;20285;-68
2023/01/15 09:11:11;;;;;;;0.20;0.20;;;7.50;99.90;10.10;99853.00;;;;5060427;28;20276;-68
2023/01/15 09:13:40;;;;;;;0.30;0.30;;;7.80;99.90;9.90;99869.00;;;;5050283;28;20268;-67
2023/01/15 09:16:08;;;;;;;0.27;0.27;;;7.90;99.90;10.40;99865.00;;;;5058505;28;20186;-67
2023/01/15 09:18:42;;;;;;;1.07;1.07;;;7.90;99.90;10.50;99871.00;;;;5055723;28;20189;-67
2023/01/15 09:21:08;;;;;;;0.20;0.20;;;8.00;99.90;10.80;99830.00;;;;5037048;28;20312;-67
2023/01/15 09:23:34;;;;;;;0.30;0.30;;;8.20;99.90;11.10;99883.00;;;;5054641;28;20209;-67
2023/01/15 09:26:05;;;;;;;2.57;0.90;;;8.50;99.90;9.30;99870.00;;;;5050088;28;20553;-68
2023/01/15 09:28:33;;;;;;;0.40;0.40;;;8.00;99.90;10.50;99881.00;;;;5066996;28;20675;-68
2023/01/15 09:31:04;;;;;;;1.70;1.03;;;7.90;99.90;8.10;99871.00;;;;5057445;28;20226;-67
2023/01/15 09:33:30;;;;;;;0.30;0.30;;;7.50;99.90;9.20;99865.00;;;;5059332;28;20688;-68
2023/01/15 09:35:56;;;;;;;0.20;0.20;;;7.40;99.90;10.00;99880.00;;;;5073668;28;20706;-68
2023/01/15 09:38:22;;;;;;;0.60;0.30;;;7.60;99.90;10.70;99890.00;;;;5042599;28;20188;-68
2023/01/15 09:41:01;;;;;;;0.20;0.20;;;8.10;99.90;10.50;99895.00;;;;5054388;28;20197;-67
2023/01/15 09:43:36;;;;;;;0.20;0.20;;;8.10;99.90;10.30;99874.00;;;;5029860;28;20606;-67
2023/01/15 09:46:16;;;;;;;0.20;0.20;;;8.00;99.90;10.50;99859.00;;;;5071028;28;20209;-67
2023/01/15 09:49:14;;;;;;;0.30;0.30;;;8.10;99.90;9.60;99868.00;;;;5034452;28;20198;-68
2023/01/15 09:52:28;;;;;;;0.40;0.40;;;7.70;99.90;9.80;99879.00;;;;5058335;28;20652;-70
2023/01/15 09:55:10;;;;;;;2.63;1.03;;;7.70;99.90;10.30;99887.00;;;;5041260;28;20201;-67
2023/01/15 09:57:36;;;;;;;0.20;0.20;;;8.20;99.90;10.80;99849.00;;;;5064786;28;20270;-67
2023/01/15 10:00:05;;;;;;;0.40;0.40;;;8.30;99.90;10.20;99899.00;;;;5050643;28;20202;-67
2023/01/15 10:02:45;;;;;;;0.43;0.43;;;8.30;99.90;9.30;99891.00;;;;5051311;28;20195;-69
2023/01/15 10:05:22;;;;;;;0.20;0.20;;;8.00;99.90;9.90;99890.00;;;;5072577;28;20571;-69
2023/01/15 10:08:23;;;;;;;3.37;1.47;;;7.80;99.90;8.70;99866.00;;;;5064887;28;20549;-69
2023/01/15 10:11:20;;;;;;;0.23;0.23;;;7.50;99.90;10.00;99877.00;;;;5054512;28;20284;-69
2023/01/15 10:14:37;;;;;;;2.27;1.03;;;7.80;99.90;9.40;99891.00;;;;5024347;28;20242;-68
2023/01/15 10:17:18;;;;;;;4.10;1.17;;;8.20;99.90;8.20;99899.00;;;;5049788;28;20241;-67
2023/01/15 10:19:50;;;;;;;0.20;0.20;;;7.50;99.90;9.20;99877.00;;;;5053108;28;20239;-66
2023/01/15 10:33:46;;;;;;;1.70;0.60;;;6.80;99.90;7.90;99838.00;;;;5070446;28;20552;-65
2023/01/15 10:36:29;;;;;;;2.83;1.03;;;6.90;99.90;9.00;99856.00;;;;5050224;28;20204;-65
2023/01/15 10:39:25;;;;;;;2.67;0.80;;;7.30;99.90;8.50;99856.00;;;;5061382;28;20200;-65
2023/01/15 10:42:06;;;;;;;1.90;0.70;;;7.30;99.90;8.10;99877.00;;;;5049447;28;20214;-65
2023/01/15 10:45:25;;;;;;;50.50;3.40;;;7.40;99.90;8.50;99861.00;;;;5048065;28;20181;-65
2023/01/15 10:48:05;;;;;;;1.90;0.40;;;7.30;99.90;10.20;99847.00;;;;5030002;28;20190;-65
2023/01/15 10:50:32;;;;;;;0.77;0.73;;;7.90;99.90;8.40;99878.00;;;;5041762;28;20194;-65
2023/01/15 10:53:13;;;;;;;0.70;0.50;;;7.70;99.90;8.40;99884.00;;;;5058631;28;20685;-65
2023/01/15 10:55:51;;;;;;;0.20;0.20;;;7.60;99.90;8.50;99888.00;;;;5039060;28;20684;-65
2023/01/15 10:59:08;;;;;;;2.67;1.17;;;7.60;99.90;8.50;99901.00;;;;5048713;28;20266;-65
2023/01/15 11:01:35;;;;;;;2.13;0.83;;;7.60;99.90;8.80;99917.00;;;;5044155;28;20199;-65
2023/01/15 11:04:01;;;;;;;0.27;0.27;;;7.60;99.90;8.10;99855.00;;;;5048431;28;20190;-65
2023/01/15 11:06:38;;;;;;;3.20;2.10;;;7.20;99.90;7.60;99868.00;;;;5046549;28;20237;-65
2023/01/15 11:09:05;;;;;;;0.20;0.20;;;7.10;99.90;8.90;99854.00;;;;5044674;28;20707;-65
2023/01/15 11:20:33;;;;;;;0.67;0.30;;;6.90;99.90;8.90;99837.00;;;;5047123;28;20235;-65
2023/01/15 11:23:39;;;;;;;0.20;0.20;;;7.20;99.90;8.50;99856.00;;;;5048404;28;20193;-65
2023/01/15 11:26:05;;;;;;;0.40;0.40;;;7.30;99.90;8.50;99839.00;;;;5010896;28;20205;-65
2023/01/15 11:28:42;;;;;;;1.90;0.60;;;7.30;99.90;8.70;99850.00;;;;5049009;28;20538;-65
2023/01/15 11:31:14;;;;;;;0.83;0.57;;;7.50;99.90;9.00;99840.00;;;;5047879;28;20204;-65
2023/01/15 11:33:59;;;;;;;1.43;0.93;;;7.70;99.90;8.10;99846.00;;;;5048311;28;20236;-65
2023/01/15 11:36:28;;;;;;;2.00;0.67;;;7.70;99.90;8.90;99833.00;;;;5048019;28;20183;-65
2023/01/15 11:38:55;;;;;;;2.93;0.40;;;8.00;99.90;8.80;99789.00;;;;5047732;28;20189;-65
2023/01/15 11:52:58;;;;;;;0.50;0.50;;;7.90;99.90;9.10;99866.00;;;;5034585;28;20256;-65
2023/01/15 11:55:26;;;;;;;0.73;0.40;;;8.00;99.90;8.30;99864.00;;;;5034281;28;20198;-64
2023/01/15 11:57:52;;;;;;;1.53;0.70;;;7.70;99.90;9.10;99856.00;;;;5032579;28;20202;-65
2023/01/15 12:00:26;;;;;;;2.87;0.50;;;7.80;99.90;8.90;99851.00;;;;5034561;28;20190;-65
2023/01/15 12:02:59;;;;;;;1.23;0.87;;;7.90;99.90;8.20;99799.00;;;;5033917;28;20195;-65
2023/01/15 12:05:29;;;;;;;0.53;0.53;;;7.70;99.90;8.90;99831.00;;;;5035301;28;20245;-65
2023/01/15 12:07:59;;;;;;;0.40;0.40;;;7.70;99.90;8.90;99829.00;;;;5034132;28;20195;-65
2023/01/15 12:14:28;;;;;;;4.33;0.80;;;8.00;99.90;9.00;99851.00;;;;5022848;28;20305;-65
2023/01/15 12:17:18;;;;;;;0.73;0.70;;;8.00;99.90;9.60;99843.00;;;;5007949;28;20245;-65
2023/01/15 12:20:02;;;;;;;2.20;0.77;;;8.00;99.90;8.40;99860.00;;;;5035459;28;20186;-65
2023/01/15 12:22:56;;;;;;;0.30;0.30;;;8.10;99.90;9.40;99861.00;;;;5025261;28;20242;-65
2023/01/15 12:25:50;;;;;;;2.80;0.70;;;8.00;99.90;9.50;99851.00;;;;5033341;28;20657;-65
2023/01/15 12:28:50;;;;;;;0.70;0.47;;;8.20;99.90;10.10;99860.00;;;;5036867;28;20190;-65
2023/01/15 12:31:24;;;;;;;0.30;0.30;;;8.20;99.90;9.60;99854.00;;;;5033169;28;20191;-65
2023/01/15 12:34:16;;;;;;;2.40;0.60;;;8.20;99.90;9.10;99849.00;;;;5033816;28;20190;-65
2023/01/15 12:37:04;;;;;;;0.20;0.20;;;8.10;99.90;11.00;99846.00;;;;5028396;28;20275;-65
2023/01/15 12:39:45;;;;;;;0.83;0.80;;;8.50;99.90;10.60;99838.00;;;;5033459;28;20218;-65
2023/01/15 12:45:37;;;;;;;0.10;0.10;;;9.00;99.90;10.70;99833.00;;;;5056111;28;20191;-66
2023/01/15 12:48:27;;;;;;;0.70;0.57;;;8.90;99.90;10.10;99865.00;;;;5038647;28;20197;-65
2023/01/15 12:50:59;;;;;;;2.37;0.67;;;8.70;99.90;9.60;99799.00;;;;5039446;28;20198;-66
2023/01/15 12:53:46;;;;;;;0.20;0.20;;;8.40;99.90;10.50;99805.00;;;;5030661;28;20203;-66
2023/01/15 12:56:44;;;;;;;0.37;0.37;;;8.50;99.90;9.60;99850.00;;;;5033236;28;20206;-66
2023/01/15 12:59:20;;;;;;;1.47;0.70;;;8.30;99.90;9.50;99855.00;;;;5030947;28;20655;-66
2023/01/15 13:01:55;;;;;;;1.17;1.07;;;8.30;99.90;9.30;99854.00;;;;5033287;28;20540;-66
2023/01/15 13:04:41;;;;;;;2.40;0.60;;;8.30;99.90;9.40;99852.00;;;;5034554;28;20185;-66
2023/01/15 13:07:38;;;;;;;0.30;0.30;;;8.20;99.90;9.50;99853.00;;;;5038593;28;20572;-66
2023/01/15 13:10:11;;;;;;;2.83;0.80;;;8.30;99.90;10.70;99845.00;;;;5033370;28;20177;-67
2023/01/15 13:12:39;;;;;;;0.67;0.50;;;8.70;99.90;10.40;99863.00;;;;5033590;28;20204;-66
2023/01/15 13:15:06;;;;;;;3.03;1.13;;;8.80;99.90;9.30;99867.00;;;;5032916;28;20184;-66
2023/01/15 13:17:54;;;;;;;0.20;0.20;;;8.60;99.90;10.70;99876.00;;;;5033919;28;20884;-66
2023/01/15 13:20:50;;;;;;;0.97;0.47;;;8.60;99.90;9.50;99842.00;;;;5033219;28;20191;-66
2023/01/15 13:23:34;;;;;;;1.67;0.67;;;8.40;99.90;9.60;99864.00;;;;5022717;28;20247;-66
2023/01/15 13:26:21;;;;;;;1.33;0.60;;;8.50;99.90;9.90;99878.00;;;;5033721;28;20234;-66
2023/01/15 13:29:45;;;;;;;0.30;0.30;;;8.50;99.90;9.80;99869.00;;;;5033889;28;20261;-66
2023/01/15 13:32:22;;;;;;;0.27;0.27;;;8.40;99.90;10.50;99859.00;;;;5025988;28;20258;-66
2023/01/15 13:35:07;;;;;;;1.47;0.77;;;8.50;99.90;9.70;99877.00;;;;5030868;28;20226;-64
2023/01/15 13:37:37;;;;;;;0.27;0.27;;;8.40;99.90;9.80;99861.00;;;;5027059;28;20175;-66
2023/01/15 13:40:34;;;;;;;1.80;0.80;;;8.30;99.90;9.70;99856.00;;;;5032486;28;20254;-64
2023/01/15 13:43:01;;;;;;;0.20;0.20;;;8.10;99.90;9.40;99841.00;;;;5032523;28;20187;-66
2023/01/15 13:45:50;;;;;;;0.20;0.20;;;8.10;99.90;10.80;99862.00;;;;5032216;28;20197;-64
2023/01/15 13:48:35;;;;;;;0.30;0.30;;;8.40;99.90;9.60;99863.00;;;;5032446;28;20183;-65
2023/01/15 13:51:06;;;;;;;0.23;0.23;;;8.30;99.90;9.40;99858.00;;;;5032606;28;20215;-65
2023/01/15 13:53:43;;;;;;;0.33;0.33;;;8.30;99.90;10.50;99855.00;;;;5020622;28;20644;-64
2023/01/15 13:56:13;;;;;;;0.30;0.30;;;8.40;99.90;10.80;99884.00;;;;5033270;28;20645;-64
2023/01/15 13:58:55;;;;;;;2.17;0.80;;;8.60;99.90;9.80;99884.00;;;;5032345;28;20198;-65
2023/01/15 14:01:34;;;;;;;0.20;0.20;;;8.40;99.90;9.60;99883.00;;;;5019603;28;20192;-65
2023/01/15 14:04:12;;;;;;;2.73;0.60;;;8.20;99.90;9.70;99907.00;;;;5031734;28;20183;-66
2023/01/15 14:06:46;;;;;;;0.97;0.30;;;8.30;99.90;9.90;99850.00;;;;5030940;28;20589;-66
2023/01/15 14:09:24;;;;;;;1.30;0.83;;;8.30;99.90;8.90;99889.00;;;;5033214;28;20197;-66
2023/01/15 14:12:26;;;;;;;0.20;0.20;;;8.00;99.90;10.40;99889.00;;;;5033114;28;20217;-65
2023/01/15 14:15:48;;;;;;;1.80;1.10;;;8.20;99.90;8.50;99880.00;;;;5024715;28;20424;-65
2023/01/15 14:18:35;;;;;;;1.63;0.60;;;7.80;99.90;9.70;99909.00;;;;4974510;28;20201;-65
2023/01/15 14:21:49;;;;;;;0.33;0.33;;;8.10;99.90;9.00;99866.00;;;;5029061;28;20566;-65
2023/01/15 14:24:36;;;;;;;0.97;0.43;;;7.80;99.90;10.50;99896.00;;;;5025924;28;20198;-65
2023/01/15 14:27:32;;;;;;;0.30;0.30;;;8.10;99.90;10.40;99897.00;;;;5032855;28;20190;-65
2023/01/15 14:30:31;;;;;;;0.60;0.60;;;8.40;99.90;9.40;99890.00;;;;5033024;28;20684;-65
2023/01/15 14:33:27;;;;;;;1.40;0.93;;;8.30;99.90;8.60;99880.00;;;;5028568;28;20245;-65
2023/01/15 14:35:55;;;;;;;0.67;0.60;;;7.90;99.90;9.60;99904.00;;;;5026220;28;20186;-65
2023/01/15 14:38:26;;;;;;;0.20;0.20;;;7.90;99.90;9.70;99873.00;;;;5020013;28;20183;-65
2023/01/15 14:41:11;;;;;;;1.00;0.90;;;7.90;99.90;9.40;99893.00;;;;5031425;28;20546;-65
2023/01/15 14:43:47;;;;;;;0.73;0.63;;;8.10;99.90;9.40;99892.00;;;;5031953;28;20583;-65
2023/01/15 14:46:29;;;;;;;1.53;0.50;;;7.90;99.90;9.70;99888.00;;;;5032383;28;20184;-65
2023/01/15 14:48:57;;;;;;;1.03;1.03;;;7.80;99.90;9.80;99888.00;;;;5031545;28;20634;-65
2023/01/15 14:51:48;;;;;;;0.53;0.53;;;7.90;99.90;9.80;99902.00;;;;5032277;28;20183;-65
2023/01/15 14:54:18;;;;;;;0.30;0.30;;;7.90;99.90;10.00;99873.00;;;;5028922;28;20195;-65
2023/01/15 14:56:52;;;;;;;0.50;0.50;;;7.80;99.90;10.10;99900.00;;;;5031591;28;20186;-65
2023/01/15 15:00:11;;;;;;;0.40;0.40;;;7.90;99.90;9.10;99883.00;;;;5031797;28;20246;-65
2023/01/15 15:02:46;;;;;;;3.40;1.03;;;7.60;99.90;9.50;99877.00;;;;5019039;28;20210;-65
2023/01/15 15:05:20;;;;;;;0.40;0.40;;;7.70;99.90;9.20;99903.00;;;;5031063;28;20240;-65
2023/01/15 15:07:51;;;;;;;0.20;0.20;;;7.50;99.90;9.50;99899.00;;;;5031127;28;20194;-65
2023/01/15 15:10:33;;;;;;;0.20;0.20;;;7.50;99.90;8.70;99889.00;;;;5030011;28;20552;-65
2023/01/15 15:13:36;;;;;;;0.60;0.60;;;7.40;99.90;8.30;99887.00;;;;5031470;28;20219;-65
2023/01/15 15:16:07;;;;;;;0.33;0.33;;;7.20;99.90;9.70;99869.00;;;;5032636;28;20183;-65
2023/01/15 15:19:12;;;;;;;2.93;0.80;;;7.40;99.90;9.90;99907.00;;;;5033113;28;20547;-65
2023/01/15 15:21:44;;;;;;;0.63;0.63;;;7.60;99.90;9.10;99912.00;;;;5031809;28;20202;-65
2023/01/15 15:24:34;;;;;;;0.83;0.60;;;7.50;99.90;7.80;99885.00;;;;5034883;28;20196;-65
2023/01/15 15:27:31;;;;;;;0.30;0.30;;;7.10;99.90;9.20;99865.00;;;;5034959;28;20612;-66
2023/01/15 15:30:10;;;;;;;0.37;0.37;;;7.20;99.90;8.30;99866.00;;;;5030912;28;20191;-65
2023/01/15 15:32:39;;;;;;;0.30;0.30;;;7.00;99.90;9.20;99849.00;;;;5034929;28;20233;-65
2023/01/15 15:35:25;;;;;;;0.30;0.30;;;7.20;99.90;9.60;99875.00;;;;5034735;28;20175;-65
2023/01/15 15:37:54;;;;;;;0.30;0.30;;;7.40;99.90;10.70;99893.00;;;;5024623;28;20224;-65
2023/01/15 15:40:32;;;;;;;1.00;0.60;;;7.70;99.90;8.90;99890.00;;;;5035975;28;20189;-65
2023/01/15 15:48:44;;;;;;;0.30;0.30;;;7.30;99.90;9.70;99872.00;;;;5034637;28;20195;-65
2023/01/15 15:51:46;;;;;;;1.70;0.93;;;7.50;99.90;7.60;99868.00;;;;5035265;28;20629;-65
2023/01/15 15:54:19;;;;;;;0.50;0.50;;;7.00;99.90;8.80;99874.00;;;;5028170;28;20644;-65
2023/01/15 15:57:16;;;;;;;0.33;0.33;;;7.10;99.90;9.50;99879.00;;;;5022977;28;20564;-65
2023/01/15 15:59:47;;;;;;;0.50;0.50;;;7.30;99.90;7.50;99785.00;;;;5022968;28;20245;-65
2023/01/15 16:02:24;;;;;;;1.40;1.23;;;6.90;99.90;8.00;99852.00;;;;5040697;28;20195;-65
2023/01/15 16:04:56;;;;;;;0.40;0.40;;;6.80;99.90;8.50;99851.00;;;;5024985;28;20198;-65
2023/01/15 16:07:36;;;;;;;0.30;0.30;;;6.90;99.90;8.50;99848.00;;;;5023546;28;20190;-65
2023/01/15 16:10:33;;;;;;;0.30;0.30;;;7.00;99.90;9.00;99818.00;;;;5034591;28;20201;-65
2023/01/15 16:13:04;;;;;;;0.30;0.30;;;6.90;99.90;8.60;99859.00;;;;5024961;28;20214;-65
2023/01/15 16:15:39;;;;;;;0.77;0.77;;;7.00;99.90;9.30;99896.00;;;;5032446;28;20182;-65
2023/01/15 16:18:14;;;;;;;0.40;0.40;;;7.10;99.90;8.40;99871.00;;;;5033665;28;20184;-65
2023/01/15 16:20:43;;;;;;;0.30;0.30;;;6.90;99.90;9.00;99876.00;;;;5033132;28;20709;-65
2023/01/15 16:23:25;;;;;;;0.67;0.57;;;7.00;99.90;7.30;99859.00;;;;5034036;28;20204;-65
2023/01/15 16:26:18;;;;;;;0.30;0.30;;;6.60;99.90;8.20;99863.00;;;;5040226;28;20240;-65
2023/01/15 16:28:54;;;;;;;0.40;0.40;;;6.60;99.90;8.60;99871.00;;;;5034186;28;20181;-65
2023/01/15 16:31:21;;;;;;;0.53;0.53;;;6.80;99.90;9.50;99902.00;;;;5044864;28;20532;-65
2023/01/15 16:33:55;;;;;;;4.70;0.50;;;7.00;99.90;9.00;99889.00;;;;5050329;28;20269;-65
2023/01/15 16:36:23;;;;;;;0.67;0.63;;;6.90;99.90;8.70;99839.00;;;;5034926;28;20186;-65
2023/01/15 16:38:55;;;;;;;1.33;0.80;;;6.80;99.90;7.30;99880.00;;;;5033812;28;20192;-65
2023/01/15 16:41:34;;;;;;;0.40;0.40;;;6.50;99.90;9.10;99873.00;;;;5033633;28;20280;-65
2023/01/15 16:44:04;;;;;;;0.30;0.30;;;6.60;99.90;8.50;99878.00;;;;5034018;28;20244;-65
2023/01/15 16:46:51;;;;;;;0.30;0.30;;;6.60;99.90;8.60;99879.00;;;;5033510;28;20193;-65
2023/01/15 16:49:23;;;;;;;0.30;0.30;;;6.60;99.90;8.30;99830.00;;;;5033727;28;20217;-65
2023/01/15 16:51:56;;;;;;;0.37;0.37;;;6.60;99.90;8.70;99891.00;;;;5026924;28;20208;-65
2023/01/15 16:54:31;;;;;;;2.97;2.77;;;6.70;99.90;9.30;99886.00;;;;5033319;28;20188;-65
2023/01/15 16:57:23;;;;;;;0.20;0.20;;;6.80;99.90;9.70;99851.00;;;;5034517;28;20660;-65
2023/01/15 17:00:01;;;;;;;0.30;0.30;;;7.00;99.90;9.40;99904.00;;;;5033776;28;20188;-65
2023/01/15 17:02:49;;;;;;;0.30;0.30;;;7.00;99.90;9.30;99896.00;;;;5023069;28;20186;-65
2023/01/15 17:05:31;;;;;;;0.30;0.30;;;7.00;99.90;9.80;99841.00;;;;5032988;28;20234;-65
2023/01/15 17:08:20;;;;;;;1.80;0.60;;;6.90;99.90;8.80;99818.00;;;;5017225;28;20192;-65
2023/01/15 17:11:21;;;;;;;0.30;0.30;;;6.70;99.90;8.80;99881.00;;;;5031063;28;20188;-65
2023/01/15 17:13:47;;;;;;;1.00;1.00;;;6.60;99.90;7.60;99876.00;;;;5020973;28;20589;-65
2023/01/15 17:16:21;;;;;;;0.30;0.30;;;6.30;99.90;8.00;99879.00;;;;5032813;28;20188;-65
2023/01/15 17:18:53;;;;;;;0.30;0.30;;;6.30;99.90;8.60;99869.00;;;;5034178;28;20179;-65
2023/01/15 17:21:28;;;;;;;0.30;0.30;;;6.40;99.90;8.50;99887.00;;;;5032653;28;20193;-65
2023/01/15 17:23:55;;;;;;;0.40;0.40;;;6.50;99.90;8.20;99877.00;;;;5024559;28;20525;-65
2023/01/15 17:26:28;;;;;;;0.40;0.40;;;6.40;99.90;8.00;99873.00;;;;5029063;28;20221;-65
2023/01/15 17:28:54;;;;;;;0.30;0.30;;;6.40;99.90;8.30;99861.00;;;;5029206;28;20258;-65
2023/01/15 17:31:30;;;;;;;0.50;0.50;;;6.40;99.90;8.30;99860.00;;;;5020732;28;20670;-65
2023/01/15 17:34:03;;;;;;;0.30;0.30;;;6.50;99.90;8.80;99856.00;;;;5033714;28;20241;-66
2023/01/15 17:36:51;;;;;;;0.30;0.30;;;6.60;99.90;9.00;99854.00;;;;5021589;28;20189;-65
2023/01/15 17:42:20;;;;;;;0.60;0.50;;;6.20;99.90;7.80;99825.00;;;;5032961;28;20190;-65
2023/01/15 17:44:46;;;;;;;0.30;0.30;;;6.30;99.90;8.60;99823.00;;;;5040955;28;20243;-66
2023/01/15 17:47:31;;;;;;;0.60;0.60;;;6.20;99.90;7.40;99821.00;;;;5028939;28;20194;-66
2023/01/15 17:50:03;;;;;;;0.50;0.50;;;6.00;99.90;7.60;99789.00;;;;5041950;28;20718;-66
2023/01/15 17:52:37;;;;;;;0.50;0.50;;;6.00;99.90;7.80;99780.00;;;;5024673;28;20309;-66
2023/01/15 18:07:07;;;;;;;0.70;0.70;;;5.90;99.90;8.40;99750.00;;;;5032368;28;20424;-66
2023/01/15 18:10:01;;;;;;;0.70;0.70;;;6.00;99.90;9.50;99765.00;;;;5033463;28;20183;-65
2023/01/15 18:12:34;;;;;;;0.80;0.80;;;6.40;99.90;10.10;99771.00;;;;5031970;28;20268;-66
2023/01/15 18:15:05;;;;;;;1.00;1.00;;;6.80;99.90;8.80;99768.00;;;;5043425;28;20183;-65
2023/01/15 18:17:34;;;;;;;0.80;0.80;;;6.60;99.90;8.00;99762.00;;;;5029212;28;20197;-66
2023/01/15 18:20:11;;;;;;;5.23;1.20;;;6.30;99.90;9.40;99757.00;;;;5032068;28;20194;-65
2023/01/15 18:22:37;;;;;;;0.80;0.80;;;6.60;99.90;9.60;99749.00;;;;5021331;28;20199;-65
2023/01/15 18:25:09;;;;;;;0.70;0.70;;;6.80;99.90;9.90;99737.00;;;;5026198;28;20201;-65
2023/01/15 18:27:44;;;;;;;1.03;1.03;;;7.10;99.90;9.30;99773.00;;;;5046145;28;20222;-65
2023/01/15 18:30:14;;;;;;;1.07;1.00;;;6.90;99.90;7.60;99743.00;;;;5033006;28;20589;-66
2023/01/15 18:32:41;;;;;;;0.80;0.80;;;6.40;99.90;8.50;99732.00;;;;5031343;28;20241;-66
2023/01/15 18:35:12;;;;;;;8.33;1.50;;;6.40;99.90;8.20;99727.00;;;;5031592;28;20652;-66
2023/01/15 18:37:44;;;;;;;0.97;0.97;;;6.20;99.90;8.20;99649.00;;;;5027640;28;20256;-66
2023/01/15 18:40:13;;;;;;;0.80;0.80;;;6.30;99.90;7.90;99717.00;;;;5031912;28;20241;-66
2023/01/15 18:48:28;;;;;;;1.80;1.67;;;6.50;99.90;8.40;99698.00;;;;5026628;28;20707;-66
2023/01/15 18:51:06;;;;;;;0.90;0.90;;;6.50;99.90;8.60;99690.00;;;;5048002;28;20178;-66
2023/01/15 18:53:47;;;;;;;0.80;0.80;;;6.40;99.90;8.60;99685.00;;;;5030924;28;20577;-66
2023/01/15 18:56:37;;;;;;;0.87;0.87;;;6.50;99.90;8.30;99673.00;;;;5042352;28;20186;-66
2023/01/15 18:59:12;;;;;;;2.20;2.10;;;6.40;99.90;8.00;99662.00;;;;5035623;28;20609;-66
2023/01/15 19:01:58;;;;;;;0.70;0.70;;;6.40;99.90;8.60;99648.00;;;;5035407;28;20240;-67
2023/01/15 19:04:48;;;;;;;0.73;0.73;;;6.50;99.90;8.60;99649.00;;;;5035384;28;20563;-67
2023/01/15 19:07:33;;;;;;;0.90;0.90;;;6.50;99.90;8.80;99636.00;;;;5035544;28;20190;-67
2023/01/15 19:10:01;;;;;;;0.70;0.70;;;6.60;99.90;8.60;99644.00;;;;5035958;28;20195;-67
2023/01/15 19:12:33;;;;;;;0.80;0.80;;;6.50;99.90;8.30;99653.00;;;;5035287;28;20207;-67
2023/01/15 19:22:57;;;;;;;0.70;0.70;;;6.50;99.90;8.80;99645.00;;;;5030255;28;20739;-67
2023/01/15 19:25:04;;;;;;;1.20;1.20;;;6.50;99.90;8.30;99623.00;;;;5040058;28;20197;-67
2023/01/15 19:27:57;;;;;;;1.23;1.23;;;6.50;99.90;8.40;99635.00;;;;5035148;28;20187;-67
2023/01/15 19:30:40;;;;;;;0.60;0.60;;;6.50;99.90;8.10;99621.00;;;;5034819;28;20186;-67
2023/01/15 19:33:19;;;;;;;0.70;0.70;;;6.50;99.90;8.60;99611.00;;;;5022931;28;20301;-67
2023/01/15 19:36:25;;;;;;;1.03;1.03;;;6.50;99.90;8.70;99595.00;;;;5030826;28;20187;-67
2023/01/15 19:52:35;;;;;;;1.23;0.80;;;6.70;99.90;8.20;99584.00;;;;5027512;28;20580;-67
2023/01/15 19:55:12;;;;;;;0.60;0.60;;;6.70;99.90;8.40;99584.00;;;;5032104;28;20577;-67
2023/01/15 19:57:40;;;;;;;0.67;0.67;;;6.70;99.90;8.50;99573.00;;;;5028618;28;20685;-67
2023/01/15 20:00:11;;;;;;;0.93;0.93;;;6.80;99.90;8.70;99549.00;;;;5031269;28;20242;-67
2023/01/15 20:02:40;;;;;;;0.63;0.63;;;6.80;99.90;9.00;99555.00;;;;5064393;28;20215;-67
2023/01/15 20:05:11;;;;;;;1.40;1.23;;;6.90;99.90;9.30;99569.00;;;;5020963;28;20209;-67
2023/01/15 20:07:37;;;;;;;0.60;0.60;;;6.90;99.90;8.90;99564.00;;;;5034135;28;20191;-67
2023/01/15 20:10:11;;;;;;;0.80;0.73;;;6.90;99.90;8.40;99581.00;;;;5034319;28;20559;-67
2023/01/15 20:15:44;;;;;;;0.50;0.50;;;6.60;99.90;8.60;99555.00;;;;5034037;28;20244;-67
2023/01/15 20:18:12;;;;;;;0.43;0.43;;;6.70;99.90;7.70;99537.00;;;;5046664;28;20199;-67
2023/01/15 20:20:41;;;;;;;0.40;0.40;;;6.40;99.90;8.00;99521.00;;;;5033883;28;20280;-67
2023/01/15 20:23:10;;;;;;;0.70;0.70;;;6.40;99.90;7.70;99507.00;;;;5030819;28;20193;-67
2023/01/15 20:25:37;;;;;;;0.50;0.50;;;6.30;99.90;8.30;99512.00;;;;5033744;28;20180;-67
2023/01/15 20:28:11;;;;;;;1.90;0.77;;;6.40;99.90;8.00;99496.00;;;;5033887;28;20183;-67
2023/01/15 20:30:40;;;;;;;0.50;0.50;;;6.30;99.90;8.40;99493.00;;;;5047135;28;20593;-67
2023/01/15 20:33:08;;;;;;;1.03;0.80;;;6.40;99.90;7.70;99496.00;;;;5017073;28;20626;-67
2023/01/15 20:35:34;;;;;;;0.60;0.60;;;6.40;99.90;7.90;99474.00;;;;5025792;28;20213;-67
2023/01/15 20:38:08;;;;;;;0.60;0.60;;;6.40;99.90;8.10;99485.00;;;;5034459;28;20187;-67
2023/01/15 20:40:34;;;;;;;0.77;0.77;;;6.40;99.90;7.80;99477.00;;;;5035123;28;20205;-67
2023/01/15 20:46:44;;;;;;;1.30;1.20;;;6.40;99.90;7.70;99398.00;;;;5033360;28;20677;-67
2023/01/15 20:49:48;;;;;;;0.93;0.93;;;6.30;99.90;8.20;99459.00;;;;5024187;28;20198;-67
2023/01/15 20:52:43;;;;;;;1.80;1.10;;;6.30;99.90;7.70;99462.00;;;;5033017;28;21022;-67
2023/01/15 20:55:19;;;;;;;0.93;0.93;;;6.30;99.90;7.60;99456.00;;;;5031922;28;20198;-67
2023/01/15 20:57:48;;;;;;;1.10;1.10;;;6.20;99.90;7.80;99453.00;;;;5031203;28;20206;-67
2023/01/15 21:00:43;;;;;;;0.80;0.80;;;6.30;99.90;8.10;99441.00;;;;5033439;28;20547;-67
2023/01/15 21:03:33;;;;;;;1.13;1.13;;;6.40;99.90;7.90;99412.00;;;;5026594;28;20284;-66
2023/01/15 21:06:04;;;;;;;1.00;1.00;;;6.40;99.90;7.30;99447.00;;;;5034159;28;20189;-66
2023/01/15 21:09:02;;;;;;;1.20;1.10;;;6.20;99.90;7.20;99449.00;;;;5033109;28;20319;-66
2023/01/15 21:11:33;;;;;;;1.53;1.30;;;6.10;99.90;7.40;99447.00;;;;5034571;28;20273;-67
2023/01/15 21:14:04;;;;;;;1.30;1.20;;;6.20;99.90;6.70;99437.00;;;;5033001;28;20280;-66
2023/01/15 21:16:36;;;;;;;1.73;1.63;;;6.00;99.90;7.30;99458.00;;;;5033445;28;20281;-67
2023/01/15 21:19:27;;;;;;;1.63;1.30;;;5.90;99.90;6.60;99452.00;;;;5034014;28;20185;-67